sensor_id;sensor_type;location;lat;lon;timestamp;P1;durP1;ratioP1;P2;durP2;ratioP2
72939;SDS011;61094;51.154;13.570;2022-10-18T00:01:24;24.50;;;10.60;;
72939;SDS011;61094;51.154;13.570;2022-10-18T00:03:51;24.55;;;10.65;;
72939;SDS011;61094;51.154;13.570;2022-10-18T00:06:18;25.63;;;12.05;;
72939;SDS011;61094;51.154;13.570;2022-10-18T00:08:47;27.88;;;11.95;;
72939;SDS011;61094;51.154;13.570;2022-10-18T00:11:14;22.05;;;9.43;;
72939;SDS011;61094;51.154;13.570;2022-10-18T00:13:40;26.20;;;12.13;;
72939;SDS011;61094;51.154;13.570;2022-10-18T00:16:09;25.23;;;11.35;;
72939;SDS011;61094;51.154;13.570;2022-10-18T00:18:37;29.77;;;13.15;;
72939;SDS011;61094;51.154;13.570;2022-10-18T00:21:05;23.02;;;10.18;;
72939;SDS011;61094;51.154;13.570;2022-10-18T00:23:34;27.85;;;12.13;;
72939;SDS011;61094;51.154;13.570;2022-10-18T00:26:03;24.05;;;10.57;;
72939;SDS011;61094;51.154;13.570;2022-10-18T00:28:31;32.00;;;12.60;;
72939;SDS011;61094;51.154;13.570;2022-10-18T00:31:07;20.92;;;9.35;;
72939;SDS011;61094;51.154;13.570;2022-10-18T00:33:38;21.83;;;10.20;;
72939;SDS011;61094;51.154;13.570;2022-10-18T00:36:07;30.33;;;11.95;;
72939;SDS011;61094;51.154;13.570;2022-10-18T00:38:34;25.10;;;9.82;;
72939;SDS011;61094;51.154;13.570;2022-10-18T00:41:02;18.88;;;8.95;;
72939;SDS011;61094;51.154;13.570;2022-10-18T00:43:30;23.38;;;10.38;;
72939;SDS011;61094;51.154;13.570;2022-10-18T00:45:57;21.10;;;9.25;;
72939;SDS011;61094;51.154;13.570;2022-10-18T00:48:24;18.42;;;9.00;;
72939;SDS011;61094;51.154;13.570;2022-10-18T00:50:51;20.05;;;8.25;;
72939;SDS011;61094;51.154;13.570;2022-10-18T00:53:19;21.88;;;9.52;;
72939;SDS011;61094;51.154;13.570;2022-10-18T00:55:48;21.83;;;9.50;;
72939;SDS011;61094;51.154;13.570;2022-10-18T00:58:17;19.30;;;8.15;;
72939;SDS011;61094;51.154;13.570;2022-10-18T01:00:45;20.50;;;8.95;;
72939;SDS011;61094;51.154;13.570;2022-10-18T01:03:12;23.52;;;9.18;;
72939;SDS011;61094;51.154;13.570;2022-10-18T01:05:40;17.77;;;7.82;;
72939;SDS011;61094;51.154;13.570;2022-10-18T01:08:15;27.77;;;10.90;;
72939;SDS011;61094;51.154;13.570;2022-10-18T01:11:01;22.10;;;9.50;;
72939;SDS011;61094;51.154;13.570;2022-10-18T01:13:40;21.08;;;8.52;;
72939;SDS011;61094;51.154;13.570;2022-10-18T01:16:14;21.80;;;8.82;;
72939;SDS011;61094;51.154;13.570;2022-10-18T01:18:46;25.35;;;9.40;;
72939;SDS011;61094;51.154;13.570;2022-10-18T01:21:21;21.20;;;9.32;;
72939;SDS011;61094;51.154;13.570;2022-10-18T01:24:06;19.58;;;8.23;;
72939;SDS011;61094;51.154;13.570;2022-10-18T01:29:58;23.13;;;9.90;;
72939;SDS011;61094;51.154;13.570;2022-10-18T01:32:48;18.42;;;8.35;;
72939;SDS011;61094;51.154;13.570;2022-10-18T01:35:21;19.38;;;7.97;;
72939;SDS011;61094;51.154;13.570;2022-10-18T01:37:51;19.95;;;8.30;;
72939;SDS011;61094;51.154;13.570;2022-10-18T01:40:21;17.83;;;8.23;;
72939;SDS011;61094;51.154;13.570;2022-10-18T01:42:49;21.38;;;8.95;;
72939;SDS011;61094;51.154;13.570;2022-10-18T01:45:16;17.92;;;8.45;;
72939;SDS011;61094;51.154;13.570;2022-10-18T01:47:48;22.00;;;9.02;;
72939;SDS011;61094;51.154;13.570;2022-10-18T01:52:52;16.58;;;7.53;;
72939;SDS011;61094;51.154;13.570;2022-10-18T01:55:19;21.77;;;8.77;;
72939;SDS011;61094;51.154;13.570;2022-10-18T01:57:53;20.02;;;9.13;;
72939;SDS011;61094;51.154;13.570;2022-10-18T02:00:25;19.65;;;8.60;;
72939;SDS011;61094;51.154;13.570;2022-10-18T02:03:00;18.80;;;8.95;;
72939;SDS011;61094;51.154;13.570;2022-10-18T02:05:31;25.35;;;11.63;;
72939;SDS011;61094;51.154;13.570;2022-10-18T02:08:05;18.85;;;8.68;;
72939;SDS011;61094;51.154;13.570;2022-10-18T02:10:37;20.50;;;9.88;;
72939;SDS011;61094;51.154;13.570;2022-10-18T02:13:06;21.10;;;8.90;;
72939;SDS011;61094;51.154;13.570;2022-10-18T02:15:37;21.05;;;9.02;;
72939;SDS011;61094;51.154;13.570;2022-10-18T02:18:09;21.63;;;9.43;;
72939;SDS011;61094;51.154;13.570;2022-10-18T02:20:41;25.42;;;10.18;;
72939;SDS011;61094;51.154;13.570;2022-10-18T02:23:07;20.02;;;9.55;;
72939;SDS011;61094;51.154;13.570;2022-10-18T02:25:36;22.40;;;8.90;;
72939;SDS011;61094;51.154;13.570;2022-10-18T02:28:04;22.90;;;9.13;;
72939;SDS011;61094;51.154;13.570;2022-10-18T02:30:32;20.10;;;9.23;;
72939;SDS011;61094;51.154;13.570;2022-10-18T02:33:03;22.38;;;10.55;;
72939;SDS011;61094;51.154;13.570;2022-10-18T02:35:38;20.08;;;9.18;;
72939;SDS011;61094;51.154;13.570;2022-10-18T02:38:09;18.23;;;8.88;;
72939;SDS011;61094;51.154;13.570;2022-10-18T02:40:39;22.05;;;9.13;;
72939;SDS011;61094;51.154;13.570;2022-10-18T02:43:05;25.13;;;10.13;;
72939;SDS011;61094;51.154;13.570;2022-10-18T02:45:32;22.95;;;8.70;;
72939;SDS011;61094;51.154;13.570;2022-10-18T02:48:00;21.70;;;10.23;;
72939;SDS011;61094;51.154;13.570;2022-10-18T02:50:27;20.52;;;9.52;;
72939;SDS011;61094;51.154;13.570;2022-10-18T02:52:55;21.02;;;8.95;;
72939;SDS011;61094;51.154;13.570;2022-10-18T02:55:21;18.58;;;8.05;;
72939;SDS011;61094;51.154;13.570;2022-10-18T02:57:48;18.23;;;7.85;;
72939;SDS011;61094;51.154;13.570;2022-10-18T03:00:15;17.55;;;8.23;;
72939;SDS011;61094;51.154;13.570;2022-10-18T03:02:42;19.45;;;8.95;;
72939;SDS011;61094;51.154;13.570;2022-10-18T03:05:09;50.42;;;21.48;;
72939;SDS011;61094;51.154;13.570;2022-10-18T03:07:38;60.78;;;25.30;;
72939;SDS011;61094;51.154;13.570;2022-10-18T03:10:07;25.42;;;11.93;;
72939;SDS011;61094;51.154;13.570;2022-10-18T03:12:34;17.90;;;7.95;;
72939;SDS011;61094;51.154;13.570;2022-10-18T03:15:01;19.42;;;8.07;;
72939;SDS011;61094;51.154;13.570;2022-10-18T03:17:28;23.27;;;9.73;;
72939;SDS011;61094;51.154;13.570;2022-10-18T03:19:54;22.98;;;8.35;;
72939;SDS011;61094;51.154;13.570;2022-10-18T03:22:21;22.63;;;11.13;;
72939;SDS011;61094;51.154;13.570;2022-10-18T03:24:49;58.25;;;26.05;;
72939;SDS011;61094;51.154;13.570;2022-10-18T03:27:17;65.20;;;26.38;;
72939;SDS011;61094;51.154;13.570;2022-10-18T03:29:44;33.95;;;16.92;;
72939;SDS011;61094;51.154;13.570;2022-10-18T03:32:10;22.88;;;9.77;;
72939;SDS011;61094;51.154;13.570;2022-10-18T03:34:37;17.98;;;8.57;;
72939;SDS011;61094;51.154;13.570;2022-10-18T03:37:10;20.35;;;8.23;;
72939;SDS011;61094;51.154;13.570;2022-10-18T03:39:36;20.42;;;8.48;;
72939;SDS011;61094;51.154;13.570;2022-10-18T03:42:03;17.65;;;8.70;;
72939;SDS011;61094;51.154;13.570;2022-10-18T03:44:31;18.90;;;7.95;;
72939;SDS011;61094;51.154;13.570;2022-10-18T03:46:58;16.30;;;7.47;;
72939;SDS011;61094;51.154;13.570;2022-10-18T03:49:25;23.33;;;8.82;;
72939;SDS011;61094;51.154;13.570;2022-10-18T03:51:51;18.80;;;8.35;;
72939;SDS011;61094;51.154;13.570;2022-10-18T03:54:18;15.85;;;7.28;;
72939;SDS011;61094;51.154;13.570;2022-10-18T03:56:45;22.95;;;8.25;;
72939;SDS011;61094;51.154;13.570;2022-10-18T03:59:12;17.10;;;7.85;;
72939;SDS011;61094;51.154;13.570;2022-10-18T04:01:42;19.48;;;7.70;;
72939;SDS011;61094;51.154;13.570;2022-10-18T04:04:09;20.20;;;8.98;;
72939;SDS011;61094;51.154;13.570;2022-10-18T04:06:35;17.15;;;7.32;;
72939;SDS011;61094;51.154;13.570;2022-10-18T04:09:02;19.73;;;6.45;;
72939;SDS011;61094;51.154;13.570;2022-10-18T04:11:29;20.02;;;7.53;;
72939;SDS011;61094;51.154;13.570;2022-10-18T04:13:56;20.23;;;7.95;;
72939;SDS011;61094;51.154;13.570;2022-10-18T04:16:23;17.65;;;6.63;;
72939;SDS011;61094;51.154;13.570;2022-10-18T04:18:51;17.60;;;7.13;;
72939;SDS011;61094;51.154;13.570;2022-10-18T04:21:18;19.65;;;9.05;;
72939;SDS011;61094;51.154;13.570;2022-10-18T04:23:45;18.05;;;7.78;;
72939;SDS011;61094;51.154;13.570;2022-10-18T04:26:12;20.83;;;8.20;;
72939;SDS011;61094;51.154;13.570;2022-10-18T04:28:40;18.38;;;8.50;;
72939;SDS011;61094;51.154;13.570;2022-10-18T04:31:08;23.30;;;11.05;;
72939;SDS011;61094;51.154;13.570;2022-10-18T04:33:35;20.92;;;8.82;;
72939;SDS011;61094;51.154;13.570;2022-10-18T04:36:03;18.65;;;8.20;;
72939;SDS011;61094;51.154;13.570;2022-10-18T04:38:30;19.42;;;8.57;;
72939;SDS011;61094;51.154;13.570;2022-10-18T04:40:57;21.38;;;8.80;;
72939;SDS011;61094;51.154;13.570;2022-10-18T04:43:24;18.80;;;7.68;;
72939;SDS011;61094;51.154;13.570;2022-10-18T04:45:51;21.63;;;8.30;;
72939;SDS011;61094;51.154;13.570;2022-10-18T04:48:18;18.40;;;7.65;;
72939;SDS011;61094;51.154;13.570;2022-10-18T04:50:46;19.98;;;7.40;;
72939;SDS011;61094;51.154;13.570;2022-10-18T04:53:15;22.35;;;8.77;;
72939;SDS011;61094;51.154;13.570;2022-10-18T04:55:43;19.98;;;8.23;;
72939;SDS011;61094;51.154;13.570;2022-10-18T04:58:10;19.98;;;8.55;;
72939;SDS011;61094;51.154;13.570;2022-10-18T05:00:37;16.92;;;7.22;;
72939;SDS011;61094;51.154;13.570;2022-10-18T05:03:04;21.60;;;8.68;;
72939;SDS011;61094;51.154;13.570;2022-10-18T05:05:31;20.45;;;8.27;;
72939;SDS011;61094;51.154;13.570;2022-10-18T05:07:58;19.45;;;7.90;;
72939;SDS011;61094;51.154;13.570;2022-10-18T05:10:26;22.23;;;9.70;;
72939;SDS011;61094;51.154;13.570;2022-10-18T05:12:53;26.65;;;10.68;;
72939;SDS011;61094;51.154;13.570;2022-10-18T05:15:19;24.77;;;10.25;;
72939;SDS011;61094;51.154;13.570;2022-10-18T05:17:46;23.58;;;10.15;;
72939;SDS011;61094;51.154;13.570;2022-10-18T05:20:13;21.33;;;9.85;;
72939;SDS011;61094;51.154;13.570;2022-10-18T05:22:40;24.83;;;10.95;;
72939;SDS011;61094;51.154;13.570;2022-10-18T05:25:07;23.27;;;9.77;;
72939;SDS011;61094;51.154;13.570;2022-10-18T05:27:35;24.52;;;10.88;;
72939;SDS011;61094;51.154;13.570;2022-10-18T05:30:02;29.50;;;11.40;;
72939;SDS011;61094;51.154;13.570;2022-10-18T05:32:29;29.00;;;10.45;;
72939;SDS011;61094;51.154;13.570;2022-10-18T05:34:56;30.77;;;12.68;;
72939;SDS011;61094;51.154;13.570;2022-10-18T05:37:23;27.50;;;11.00;;
72939;SDS011;61094;51.154;13.570;2022-10-18T05:39:50;23.65;;;10.65;;
72939;SDS011;61094;51.154;13.570;2022-10-18T05:42:17;28.38;;;11.85;;
72939;SDS011;61094;51.154;13.570;2022-10-18T05:44:45;23.27;;;11.50;;
72939;SDS011;61094;51.154;13.570;2022-10-18T05:47:12;68.80;;;27.73;;
72939;SDS011;61094;51.154;13.570;2022-10-18T05:49:38;36.15;;;15.68;;
72939;SDS011;61094;51.154;13.570;2022-10-18T05:52:05;37.38;;;14.52;;
72939;SDS011;61094;51.154;13.570;2022-10-18T05:54:32;35.90;;;15.27;;
72939;SDS011;61094;51.154;13.570;2022-10-18T05:56:59;29.35;;;12.52;;
72939;SDS011;61094;51.154;13.570;2022-10-18T05:59:25;29.70;;;12.77;;
72939;SDS011;61094;51.154;13.570;2022-10-18T06:01:53;33.25;;;13.63;;
72939;SDS011;61094;51.154;13.570;2022-10-18T06:04:20;38.58;;;14.05;;
72939;SDS011;61094;51.154;13.570;2022-10-18T06:06:47;37.13;;;13.20;;
72939;SDS011;61094;51.154;13.570;2022-10-18T06:09:14;38.90;;;14.13;;
72939;SDS011;61094;51.154;13.570;2022-10-18T06:11:41;51.25;;;15.75;;
72939;SDS011;61094;51.154;13.570;2022-10-18T06:14:08;42.03;;;14.80;;
72939;SDS011;61094;51.154;13.570;2022-10-18T06:16:35;40.33;;;15.00;;
72939;SDS011;61094;51.154;13.570;2022-10-18T06:19:03;51.95;;;16.23;;
72939;SDS011;61094;51.154;13.570;2022-10-18T06:21:29;58.70;;;19.92;;
72939;SDS011;61094;51.154;13.570;2022-10-18T06:23:57;42.85;;;15.30;;
72939;SDS011;61094;51.154;13.570;2022-10-18T06:26:25;37.83;;;14.65;;
72939;SDS011;61094;51.154;13.570;2022-10-18T06:28:53;30.77;;;13.95;;
72939;SDS011;61094;51.154;13.570;2022-10-18T06:31:19;30.33;;;13.45;;
72939;SDS011;61094;51.154;13.570;2022-10-18T06:33:46;36.60;;;13.98;;
72939;SDS011;61094;51.154;13.570;2022-10-18T06:36:15;151.50;;;63.33;;
72939;SDS011;61094;51.154;13.570;2022-10-18T06:38:43;93.40;;;36.75;;
72939;SDS011;61094;51.154;13.570;2022-10-18T06:41:10;41.67;;;17.50;;
72939;SDS011;61094;51.154;13.570;2022-10-18T06:43:37;33.47;;;13.73;;
72939;SDS011;61094;51.154;13.570;2022-10-18T06:46:04;33.13;;;13.70;;
72939;SDS011;61094;51.154;13.570;2022-10-18T06:48:32;40.50;;;16.20;;
72939;SDS011;61094;51.154;13.570;2022-10-18T06:51:00;44.15;;;16.58;;
72939;SDS011;61094;51.154;13.570;2022-10-18T06:53:30;41.08;;;16.50;;
72939;SDS011;61094;51.154;13.570;2022-10-18T06:55:58;43.90;;;16.52;;
72939;SDS011;61094;51.154;13.570;2022-10-18T06:58:26;32.63;;;14.00;;
72939;SDS011;61094;51.154;13.570;2022-10-18T07:00:53;41.13;;;18.88;;
72939;SDS011;61094;51.154;13.570;2022-10-18T07:03:20;39.40;;;17.33;;
72939;SDS011;61094;51.154;13.570;2022-10-18T07:05:47;31.25;;;15.23;;
72939;SDS011;61094;51.154;13.570;2022-10-18T07:08:13;36.65;;;15.32;;
72939;SDS011;61094;51.154;13.570;2022-10-18T07:10:42;31.95;;;15.18;;
72939;SDS011;61094;51.154;13.570;2022-10-18T07:13:16;29.48;;;14.07;;
72939;SDS011;61094;51.154;13.570;2022-10-18T07:15:43;35.47;;;14.80;;
72939;SDS011;61094;51.154;13.570;2022-10-18T07:18:10;31.77;;;14.48;;
72939;SDS011;61094;51.154;13.570;2022-10-18T07:20:36;27.98;;;13.80;;
72939;SDS011;61094;51.154;13.570;2022-10-18T07:23:03;35.47;;;14.73;;
72939;SDS011;61094;51.154;13.570;2022-10-18T07:25:32;42.10;;;17.30;;
72939;SDS011;61094;51.154;13.570;2022-10-18T07:28:01;46.13;;;20.52;;
72939;SDS011;61094;51.154;13.570;2022-10-18T07:30:27;44.92;;;20.00;;
72939;SDS011;61094;51.154;13.570;2022-10-18T07:32:54;36.40;;;16.17;;
72939;SDS011;61094;51.154;13.570;2022-10-18T07:35:21;39.58;;;15.77;;
72939;SDS011;61094;51.154;13.570;2022-10-18T07:37:48;33.58;;;15.50;;
72939;SDS011;61094;51.154;13.570;2022-10-18T07:40:14;33.40;;;16.20;;
72939;SDS011;61094;51.154;13.570;2022-10-18T07:42:41;100.78;;;22.05;;
72939;SDS011;61094;51.154;13.570;2022-10-18T07:45:19;68.35;;;18.23;;
72939;SDS011;61094;51.154;13.570;2022-10-18T07:47:52;43.53;;;18.73;;
72939;SDS011;61094;51.154;13.570;2022-10-18T07:50:23;39.55;;;17.33;;
72939;SDS011;61094;51.154;13.570;2022-10-18T07:52:50;41.15;;;18.83;;
72939;SDS011;61094;51.154;13.570;2022-10-18T07:55:17;36.28;;;17.08;;
72939;SDS011;61094;51.154;13.570;2022-10-18T07:57:44;39.95;;;16.42;;
72939;SDS011;61094;51.154;13.570;2022-10-18T08:00:11;35.95;;;16.55;;
72939;SDS011;61094;51.154;13.570;2022-10-18T08:02:39;37.90;;;16.83;;
72939;SDS011;61094;51.154;13.570;2022-10-18T08:05:07;42.97;;;17.33;;
72939;SDS011;61094;51.154;13.570;2022-10-18T08:07:34;37.38;;;16.77;;
72939;SDS011;61094;51.154;13.570;2022-10-18T08:10:01;36.25;;;16.17;;
72939;SDS011;61094;51.154;13.570;2022-10-18T08:12:29;38.92;;;16.50;;
72939;SDS011;61094;51.154;13.570;2022-10-18T08:14:56;64.50;;;28.65;;
72939;SDS011;61094;51.154;13.570;2022-10-18T08:17:23;42.45;;;18.52;;
72939;SDS011;61094;51.154;13.570;2022-10-18T08:19:54;39.70;;;17.65;;
72939;SDS011;61094;51.154;13.570;2022-10-18T08:22:21;39.63;;;17.08;;
72939;SDS011;61094;51.154;13.570;2022-10-18T08:24:48;35.80;;;17.45;;
72939;SDS011;61094;51.154;13.570;2022-10-18T08:27:15;42.05;;;18.83;;
72939;SDS011;61094;51.154;13.570;2022-10-18T08:29:42;40.60;;;17.50;;
72939;SDS011;61094;51.154;13.570;2022-10-18T08:32:09;34.83;;;15.75;;
72939;SDS011;61094;51.154;13.570;2022-10-18T08:34:36;33.97;;;15.52;;
72939;SDS011;61094;51.154;13.570;2022-10-18T08:37:04;37.60;;;16.38;;
72939;SDS011;61094;51.154;13.570;2022-10-18T08:39:32;35.10;;;15.93;;
72939;SDS011;61094;51.154;13.570;2022-10-18T08:44:53;41.05;;;16.90;;
72939;SDS011;61094;51.154;13.570;2022-10-18T08:47:21;41.90;;;19.75;;
72939;SDS011;61094;51.154;13.570;2022-10-18T08:49:57;46.35;;;18.70;;
72939;SDS011;61094;51.154;13.570;2022-10-18T08:52:30;51.17;;;19.38;;
72939;SDS011;61094;51.154;13.570;2022-10-18T08:54:59;37.50;;;15.80;;
72939;SDS011;61094;51.154;13.570;2022-10-18T08:57:28;34.95;;;15.35;;
72939;SDS011;61094;51.154;13.570;2022-10-18T08:59:56;35.67;;;15.57;;
72939;SDS011;61094;51.154;13.570;2022-10-18T09:02:27;30.30;;;15.00;;
72939;SDS011;61094;51.154;13.570;2022-10-18T09:05:02;30.20;;;14.63;;
72939;SDS011;61094;51.154;13.570;2022-10-18T09:07:58;30.15;;;13.85;;
72939;SDS011;61094;51.154;13.570;2022-10-18T09:10:43;24.65;;;12.60;;
72939;SDS011;61094;51.154;13.570;2022-10-18T09:13:23;25.13;;;12.38;;
72939;SDS011;61094;51.154;13.570;2022-10-18T09:16:15;25.80;;;12.10;;
72939;SDS011;61094;51.154;13.570;2022-10-18T09:18:50;27.27;;;13.25;;
72939;SDS011;61094;51.154;13.570;2022-10-18T09:21:35;26.95;;;11.93;;
72939;SDS011;61094;51.154;13.570;2022-10-18T09:24:12;24.40;;;11.75;;
72939;SDS011;61094;51.154;13.570;2022-10-18T09:26:42;24.27;;;12.77;;
72939;SDS011;61094;51.154;13.570;2022-10-18T09:29:22;25.02;;;11.25;;
72939;SDS011;61094;51.154;13.570;2022-10-18T09:31:59;23.05;;;11.18;;
72939;SDS011;61094;51.154;13.570;2022-10-18T09:34:37;24.23;;;10.98;;
72939;SDS011;61094;51.154;13.570;2022-10-18T09:37:08;20.83;;;10.65;;
72939;SDS011;61094;51.154;13.570;2022-10-18T09:39:40;22.83;;;11.65;;
72939;SDS011;61094;51.154;13.570;2022-10-18T09:44:39;22.95;;;11.00;;
72939;SDS011;61094;51.154;13.570;2022-10-18T09:47:13;21.90;;;9.80;;
72939;SDS011;61094;51.154;13.570;2022-10-18T09:49:46;23.02;;;10.57;;
72939;SDS011;61094;51.154;13.570;2022-10-18T09:52:17;25.48;;;11.85;;
72939;SDS011;61094;51.154;13.570;2022-10-18T09:54:52;22.73;;;10.80;;
72939;SDS011;61094;51.154;13.570;2022-10-18T09:57:24;27.63;;;12.38;;
72939;SDS011;61094;51.154;13.570;2022-10-18T09:59:57;24.15;;;11.45;;
72939;SDS011;61094;51.154;13.570;2022-10-18T10:02:27;27.17;;;11.95;;
72939;SDS011;61094;51.154;13.570;2022-10-18T10:04:54;27.35;;;12.10;;
72939;SDS011;61094;51.154;13.570;2022-10-18T10:07:23;23.08;;;11.30;;
72939;SDS011;61094;51.154;13.570;2022-10-18T10:09:56;20.52;;;10.75;;
72939;SDS011;61094;51.154;13.570;2022-10-18T10:12:35;26.02;;;12.82;;
72939;SDS011;61094;51.154;13.570;2022-10-18T10:15:18;31.27;;;14.20;;
72939;SDS011;61094;51.154;13.570;2022-10-18T10:17:53;27.40;;;13.45;;
72939;SDS011;61094;51.154;13.570;2022-10-18T10:20:26;38.03;;;17.67;;
72939;SDS011;61094;51.154;13.570;2022-10-18T10:23:07;28.23;;;12.20;;
72939;SDS011;61094;51.154;13.570;2022-10-18T10:25:40;22.77;;;11.88;;
72939;SDS011;61094;51.154;13.570;2022-10-18T10:28:11;23.17;;;11.55;;
72939;SDS011;61094;51.154;13.570;2022-10-18T10:30:41;21.40;;;10.77;;
72939;SDS011;61094;51.154;13.570;2022-10-18T10:33:27;23.80;;;10.35;;
72939;SDS011;61094;51.154;13.570;2022-10-18T10:35:59;20.67;;;10.23;;
72939;SDS011;61094;51.154;13.570;2022-10-18T10:38:28;22.63;;;9.73;;
72939;SDS011;61094;51.154;13.570;2022-10-18T10:40:57;18.77;;;8.98;;
72939;SDS011;61094;51.154;13.570;2022-10-18T10:43:25;16.60;;;7.57;;
72939;SDS011;61094;51.154;13.570;2022-10-18T10:45:59;12.93;;;5.90;;
72939;SDS011;61094;51.154;13.570;2022-10-18T10:48:29;13.77;;;6.32;;
72939;SDS011;61094;51.154;13.570;2022-10-18T10:51:00;20.25;;;9.82;;
72939;SDS011;61094;51.154;13.570;2022-10-18T10:53:37;23.02;;;10.65;;
72939;SDS011;61094;51.154;13.570;2022-10-18T10:59:00;9.88;;;3.72;;
72939;SDS011;61094;51.154;13.570;2022-10-18T11:01:35;8.43;;;3.45;;
72939;SDS011;61094;51.154;13.570;2022-10-18T11:04:20;8.60;;;3.22;;
72939;SDS011;61094;51.154;13.570;2022-10-18T11:06:52;11.68;;;3.40;;
72939;SDS011;61094;51.154;13.570;2022-10-18T11:09:44;7.15;;;2.63;;
72939;SDS011;61094;51.154;13.570;2022-10-18T11:12:19;6.65;;;2.60;;
72939;SDS011;61094;51.154;13.570;2022-10-18T11:14:51;7.65;;;2.78;;
72939;SDS011;61094;51.154;13.570;2022-10-18T11:17:24;5.55;;;2.08;;
72939;SDS011;61094;51.154;13.570;2022-10-18T11:20:00;6.22;;;2.03;;
72939;SDS011;61094;51.154;13.570;2022-10-18T11:22:42;6.70;;;2.15;;
72939;SDS011;61094;51.154;13.570;2022-10-18T11:25:12;6.68;;;2.72;;
72939;SDS011;61094;51.154;13.570;2022-10-18T11:27:45;7.35;;;2.78;;
72939;SDS011;61094;51.154;13.570;2022-10-18T11:30:25;9.40;;;2.72;;
72939;SDS011;61094;51.154;13.570;2022-10-18T11:33:04;6.43;;;2.03;;
72939;SDS011;61094;51.154;13.570;2022-10-18T11:35:45;6.68;;;2.72;;
72939;SDS011;61094;51.154;13.570;2022-10-18T11:38:30;46.97;;;20.63;;
72939;SDS011;61094;51.154;13.570;2022-10-18T11:41:13;12.82;;;5.82;;
72939;SDS011;61094;51.154;13.570;2022-10-18T11:43:51;6.80;;;2.00;;
72939;SDS011;61094;51.154;13.570;2022-10-18T11:46:22;6.28;;;2.25;;
72939;SDS011;61094;51.154;13.570;2022-10-18T11:48:59;7.35;;;1.70;;
72939;SDS011;61094;51.154;13.570;2022-10-18T11:51:36;5.85;;;1.90;;
72939;SDS011;61094;51.154;13.570;2022-10-18T11:54:26;4.40;;;1.60;;
72939;SDS011;61094;51.154;13.570;2022-10-18T11:57:08;4.05;;;1.33;;
72939;SDS011;61094;51.154;13.570;2022-10-18T11:59:47;4.70;;;1.50;;
72939;SDS011;61094;51.154;13.570;2022-10-18T12:02:32;4.28;;;1.23;;
72939;SDS011;61094;51.154;13.570;2022-10-18T12:05:13;4.75;;;1.40;;
72939;SDS011;61094;51.154;13.570;2022-10-18T12:07:41;4.25;;;1.38;;
72939;SDS011;61094;51.154;13.570;2022-10-18T12:10:22;3.95;;;1.30;;
72939;SDS011;61094;51.154;13.570;2022-10-18T12:12:52;4.88;;;1.85;;
72939;SDS011;61094;51.154;13.570;2022-10-18T12:15:26;5.32;;;1.70;;
72939;SDS011;61094;51.154;13.570;2022-10-18T12:17:56;5.43;;;1.70;;
72939;SDS011;61094;51.154;13.570;2022-10-18T12:20:26;5.03;;;1.75;;
72939;SDS011;61094;51.154;13.570;2022-10-18T12:22:58;8.13;;;1.73;;
72939;SDS011;61094;51.154;13.570;2022-10-18T12:25:28;4.90;;;1.58;;
72939;SDS011;61094;51.154;13.570;2022-10-18T12:27:59;5.30;;;1.60;;
72939;SDS011;61094;51.154;13.570;2022-10-18T12:30:36;7.13;;;2.45;;
72939;SDS011;61094;51.154;13.570;2022-10-18T12:33:08;7.57;;;2.63;;
72939;SDS011;61094;51.154;13.570;2022-10-18T12:35:39;5.05;;;1.70;;
72939;SDS011;61094;51.154;13.570;2022-10-18T12:38:19;5.32;;;1.60;;
72939;SDS011;61094;51.154;13.570;2022-10-18T12:40:50;7.03;;;2.00;;
72939;SDS011;61094;51.154;13.570;2022-10-18T12:43:21;9.25;;;3.30;;
72939;SDS011;61094;51.154;13.570;2022-10-18T12:45:52;6.28;;;2.72;;
72939;SDS011;61094;51.154;13.570;2022-10-18T12:48:30;6.97;;;3.13;;
72939;SDS011;61094;51.154;13.570;2022-10-18T12:51:02;6.60;;;3.08;;
72939;SDS011;61094;51.154;13.570;2022-10-18T12:53:32;8.32;;;3.50;;
72939;SDS011;61094;51.154;13.570;2022-10-18T13:02:14;6.10;;;2.38;;
72939;SDS011;61094;51.154;13.570;2022-10-18T13:04:55;6.47;;;2.67;;
72939;SDS011;61094;51.154;13.570;2022-10-18T13:07:34;5.43;;;2.28;;
72939;SDS011;61094;51.154;13.570;2022-10-18T13:16:06;63.30;;;26.02;;
72939;SDS011;61094;51.154;13.570;2022-10-18T13:18:45;8.73;;;3.22;;
72939;SDS011;61094;51.154;13.570;2022-10-18T13:21:19;7.60;;;2.75;;
72939;SDS011;61094;51.154;13.570;2022-10-18T13:24:11;7.13;;;2.35;;
72939;SDS011;61094;51.154;13.570;2022-10-18T13:26:59;6.95;;;1.77;;
72939;SDS011;61094;51.154;13.570;2022-10-18T13:29:44;4.63;;;1.92;;
72939;SDS011;61094;51.154;13.570;2022-10-18T13:32:22;54.55;;;26.50;;
72939;SDS011;61094;51.154;13.570;2022-10-18T13:34:54;100.60;;;48.13;;
72939;SDS011;61094;51.154;13.570;2022-10-18T13:37:21;9.00;;;3.80;;
72939;SDS011;61094;51.154;13.570;2022-10-18T13:39:50;6.15;;;2.25;;
72939;SDS011;61094;51.154;13.570;2022-10-18T13:42:38;6.97;;;2.60;;
72939;SDS011;61094;51.154;13.570;2022-10-18T13:51:26;8.80;;;2.20;;
72939;SDS011;61094;51.154;13.570;2022-10-18T13:54:13;14.32;;;5.80;;
72939;SDS011;61094;51.154;13.570;2022-10-18T13:59:59;6.63;;;2.28;;
72939;SDS011;61094;51.154;13.570;2022-10-18T14:02:50;5.45;;;2.00;;
72939;SDS011;61094;51.154;13.570;2022-10-18T14:05:47;8.20;;;2.33;;
72939;SDS011;61094;51.154;13.570;2022-10-18T14:08:18;6.20;;;2.25;;
72939;SDS011;61094;51.154;13.570;2022-10-18T14:10:51;8.32;;;2.97;;
72939;SDS011;61094;51.154;13.570;2022-10-18T14:15:55;9.07;;;2.97;;
72939;SDS011;61094;51.154;13.570;2022-10-18T14:18:29;7.18;;;2.20;;
72939;SDS011;61094;51.154;13.570;2022-10-18T14:21:02;6.63;;;2.25;;
72939;SDS011;61094;51.154;13.570;2022-10-18T14:23:35;6.72;;;2.20;;
72939;SDS011;61094;51.154;13.570;2022-10-18T14:26:12;7.25;;;2.40;;
72939;SDS011;61094;51.154;13.570;2022-10-18T14:28:40;7.85;;;2.67;;
72939;SDS011;61094;51.154;13.570;2022-10-18T14:31:11;9.32;;;2.63;;
72939;SDS011;61094;51.154;13.570;2022-10-18T14:33:41;6.78;;;3.00;;
72939;SDS011;61094;51.154;13.570;2022-10-18T14:36:11;8.80;;;3.47;;
72939;SDS011;61094;51.154;13.570;2022-10-18T14:38:49;6.38;;;2.78;;
72939;SDS011;61094;51.154;13.570;2022-10-18T14:41:19;14.38;;;5.65;;
72939;SDS011;61094;51.154;13.570;2022-10-18T14:43:48;6.45;;;2.33;;
72939;SDS011;61094;51.154;13.570;2022-10-18T14:46:17;5.93;;;2.17;;
72939;SDS011;61094;51.154;13.570;2022-10-18T14:48:52;6.75;;;2.13;;
72939;SDS011;61094;51.154;13.570;2022-10-18T14:51:22;5.85;;;2.00;;
72939;SDS011;61094;51.154;13.570;2022-10-18T14:53:51;7.93;;;2.88;;
72939;SDS011;61094;51.154;13.570;2022-10-18T14:56:20;9.30;;;3.72;;
72939;SDS011;61094;51.154;13.570;2022-10-18T14:58:50;7.93;;;2.55;;
72939;SDS011;61094;51.154;13.570;2022-10-18T15:01:19;7.22;;;2.05;;
72939;SDS011;61094;51.154;13.570;2022-10-18T15:03:49;6.72;;;2.40;;
72939;SDS011;61094;51.154;13.570;2022-10-18T15:06:22;5.30;;;2.17;;
72939;SDS011;61094;51.154;13.570;2022-10-18T15:08:50;6.35;;;2.10;;
72939;SDS011;61094;51.154;13.570;2022-10-18T15:11:21;6.72;;;1.95;;
72939;SDS011;61094;51.154;13.570;2022-10-18T15:13:52;8.35;;;2.58;;
72939;SDS011;61094;51.154;13.570;2022-10-18T15:16:21;5.10;;;2.03;;
72939;SDS011;61094;51.154;13.570;2022-10-18T15:19:03;14.60;;;6.10;;